Elmer City, Washington
Current Conditions -  °F | °C
As of 3:22 AM on Tuesday 21 Oct 2014 (Local Time) from KOMK Reporting Station
Broken Clouds Broken Clouds  
Wind Chill: 11°   Ceiling: 2900
Heat Index: 11°   Visibility: 10mi
Dew Point:   Wind: 10mph
Humidity: 83%   Direction: 170°S
Pressure: 29.79"   Gusts: NA
Location:  48°N, 118.95°W
Report Text: KOMK 211022Z AUTO 17009KT 10SM BKN029 BKN034 11/08 A2979 RMK AO2 T01110083
Loading
Personal Weather Stations






























Interactive Weather Map
Tropical Storm Tracking
New forecast layout! Learn more

10-Day Weather Forecast

Advertisements
Track Severe Weather on mobile